createdAt,value
2022-10-09T00:00:49.989Z,101894.97
2022-10-09T00:03:17.740Z,101893.38
2022-10-09T00:05:45.085Z,101898.34
2022-10-09T00:08:11.732Z,101889.38
2022-10-09T00:10:44.867Z,101898.91
2022-10-09T00:13:12.205Z,101887.16
2022-10-09T00:15:43.965Z,101866.19
2022-10-09T00:18:12.754Z,101893.38
2022-10-09T00:20:41.535Z,101888.94
2022-10-09T00:23:08.609Z,101888.94
2022-10-09T00:25:38.524Z,101892.34
2022-10-09T00:28:06.203Z,101879.38
2022-10-09T00:30:32.820Z,101888.03
2022-10-09T00:32:59.340Z,101890.31
2022-10-09T00:35:25.914Z,101893.56
2022-10-09T00:37:52.454Z,101890.72
2022-10-09T00:40:19.006Z,101890.38
2022-10-09T00:42:45.773Z,101895.63
2022-10-09T00:45:22.226Z,101888.88
2022-10-09T00:47:51.776Z,101891.25
2022-10-09T00:50:41.400Z,101897.69
2022-10-09T00:53:09.365Z,101890.56
2022-10-09T00:55:37.312Z,101891.66
2022-10-09T00:58:04.428Z,101902.56
2022-10-09T01:00:31.189Z,101899.03
2022-10-09T01:02:57.708Z,101905.53
2022-10-09T01:06:00.566Z,101899.28
2022-10-09T01:08:45.388Z,101902.38
2022-10-09T01:11:26.536Z,101900.56
2022-10-09T01:14:00.102Z,101904.38
2022-10-09T01:16:55.353Z,101897.59
2022-10-09T01:19:46.900Z,101897.16
2022-10-09T01:22:13.332Z,101896.78
2022-10-09T01:24:51.271Z,101896.19
2022-10-09T01:27:23.138Z,101899.28
2022-10-09T01:29:55.798Z,101893.75
2022-10-09T01:32:28.844Z,101893.75
2022-10-09T01:34:56.568Z,101887.38
2022-10-09T01:37:24.024Z,101891.69
2022-10-09T01:39:52.112Z,101883.84
2022-10-09T01:42:21.236Z,101889.16
2022-10-09T01:44:47.787Z,101885.94
2022-10-09T01:47:20.279Z,101885.84
2022-10-09T01:49:49.528Z,101891.84
2022-10-09T01:52:53.774Z,101893.59
2022-10-09T01:56:02.496Z,101885.03
2022-10-09T01:58:53.229Z,101891.03
2022-10-09T02:01:26.960Z,101893.16
2022-10-09T02:03:56.094Z,101892.81
2022-10-09T02:06:23.329Z,101886.00
2022-10-09T02:08:52.723Z,101882.84
2022-10-09T02:11:19.687Z,101877.59
2022-10-09T02:13:49.452Z,101880.41
2022-10-09T02:16:38.994Z,101879.50
2022-10-09T02:19:13.781Z,101878.38
2022-10-09T02:21:55.383Z,101880.16
2022-10-09T02:24:23.784Z,101879.09
2022-10-09T02:26:53.176Z,101881.94
2022-10-09T02:29:20.340Z,101878.38
2022-10-09T02:31:47.050Z,101876.53
2022-10-09T02:34:17.715Z,101878.53
2022-10-09T02:36:44.341Z,101881.28
2022-10-09T02:39:10.977Z,101875.44
2022-10-09T02:41:37.947Z,101867.19
2022-10-09T02:44:06.057Z,101879.81
2022-10-09T02:46:33.432Z,101865.69
2022-10-09T02:49:00.196Z,101875.13
2022-10-09T02:51:26.923Z,101864.22
2022-10-09T02:53:54.217Z,101873.53
2022-10-09T02:56:22.154Z,101862.66
2022-10-09T02:58:49.353Z,101878.16
2022-10-09T03:01:15.924Z,101864.06
2022-10-09T03:03:42.546Z,101867.34
2022-10-09T03:06:11.885Z,101861.69
2022-10-09T03:08:40.598Z,101863.41
2022-10-09T03:11:07.317Z,101856.41
2022-10-09T03:13:33.934Z,101872.19
2022-10-09T03:16:05.392Z,101862.50
2022-10-09T03:18:32.413Z,101868.78
2022-10-09T03:20:59.003Z,101868.47
2022-10-09T03:23:26.486Z,101872.63
2022-10-09T03:25:57.586Z,101874.97
2022-10-09T03:28:24.575Z,101870.53
2022-10-09T03:30:51.542Z,101879.84
2022-10-09T03:33:18.526Z,101883.25
2022-10-09T03:35:49.727Z,101881.69
2022-10-09T03:38:16.718Z,101880.22
2022-10-09T03:40:43.457Z,101878.88
2022-10-09T03:43:10.076Z,101875.59
2022-10-09T03:45:44.279Z,101868.47
2022-10-09T03:48:13.273Z,101877.94
2022-10-09T03:50:41.215Z,101883.97
2022-10-09T03:53:09.985Z,101882.13
2022-10-09T03:55:36.554Z,101876.31
2022-10-09T03:58:03.168Z,101878.56
2022-10-09T04:00:29.879Z,101867.75
2022-10-09T04:02:56.499Z,101882.09
2022-10-09T04:05:23.070Z,101885.47
2022-10-09T04:07:49.738Z,101880.03
2022-10-09T04:10:16.422Z,101887.53
2022-10-09T04:12:42.982Z,101881.03
2022-10-09T04:15:10.526Z,101881.63
2022-10-09T04:17:37.428Z,101878.09
2022-10-09T04:20:04.300Z,101884.00
2022-10-09T04:22:30.930Z,101878.09
2022-10-09T04:24:57.465Z,101875.88
2022-10-09T04:27:24.007Z,101875.13
2022-10-09T04:29:50.510Z,101861.91
2022-10-09T04:32:17.069Z,101864.47
2022-10-09T04:34:43.652Z,101871.34
2022-10-09T04:37:10.158Z,101869.81
2022-10-09T04:39:36.660Z,101865.16
2022-10-09T04:42:03.203Z,101880.44
2022-10-09T04:44:29.773Z,101877.31
2022-10-09T04:46:56.302Z,101868.16
2022-10-09T04:49:22.795Z,101868.44
2022-10-09T04:51:49.348Z,101846.06
2022-10-09T04:54:16.140Z,101862.38
2022-10-09T04:56:42.698Z,101873.59
2022-10-09T04:59:09.212Z,101877.06
2022-10-09T05:01:38.320Z,101874.28
2022-10-09T05:04:05.677Z,101876.78
2022-10-09T05:06:32.362Z,101872.41
2022-10-09T05:08:58.870Z,101882.31
2022-10-09T05:11:25.904Z,101881.22
2022-10-09T05:13:55.450Z,101879.75
2022-10-09T05:16:27.440Z,101886.94
2022-10-09T05:18:56.311Z,101881.03
2022-10-09T05:21:23.606Z,101887.81
2022-10-09T05:23:50.722Z,101882.16
2022-10-09T05:26:19.157Z,101887.81
2022-10-09T05:28:46.454Z,101882.66
2022-10-09T05:31:22.003Z,101884.78
2022-10-09T05:33:49.276Z,101888.34
2022-10-09T05:36:16.711Z,101883.50
2022-10-09T05:38:43.834Z,101891.94
2022-10-09T05:41:15.207Z,101893.31
2022-10-09T05:43:44.842Z,101884.91
2022-10-09T05:46:12.489Z,101896.47
2022-10-09T05:48:41.236Z,101888.66
2022-10-09T05:51:16.645Z,101877.66
2022-10-09T05:53:45.141Z,101891.81
2022-10-09T05:56:16.881Z,101887.34
2022-10-09T05:58:44.230Z,101882.13
2022-10-09T06:01:11.058Z,101878.47
2022-10-09T06:03:38.488Z,101887.81
2022-10-09T06:06:06.893Z,101884.47
2022-10-09T06:08:38.235Z,101886.88
2022-10-09T06:11:14.284Z,101883.31
2022-10-09T06:13:41.960Z,101881.81
2022-10-09T06:16:09.041Z,101889.13
2022-10-09T06:18:35.537Z,101879.78
2022-10-09T06:21:02.964Z,101887.19
2022-10-09T06:23:30.105Z,101895.75
2022-10-09T06:26:00.660Z,101891.13
2022-10-09T06:28:31.795Z,101882.66
2022-10-09T06:31:05.749Z,101883.53
2022-10-09T06:33:33.936Z,101881.78
2022-10-09T06:36:10.371Z,101872.97
2022-10-09T06:38:38.288Z,101891.84
2022-10-09T06:41:12.886Z,101887.22
2022-10-09T06:43:40.854Z,101891.19
2022-10-09T06:46:10.635Z,101893.69
2022-10-09T06:48:38.721Z,101891.88
2022-10-09T06:51:11.159Z,101888.78
2022-10-09T06:53:39.739Z,101889.59
2022-10-09T06:56:07.106Z,101895.44
2022-10-09T06:58:33.726Z,101897.25
2022-10-09T07:01:17.549Z,101895.31
2022-10-09T07:03:47.012Z,101908.53
2022-10-09T07:06:16.548Z,101902.84
2022-10-09T07:08:45.925Z,101906.97
2022-10-09T07:11:22.691Z,101898.03
2022-10-09T07:13:51.888Z,101887.69
2022-10-09T07:16:24.381Z,101904.19
2022-10-09T07:18:51.075Z,101905.16
2022-10-09T07:21:17.857Z,101894.19
2022-10-09T07:23:44.463Z,101904.69
2022-10-09T07:26:23.894Z,101905.47
2022-10-09T07:28:51.410Z,101898.56
2022-10-09T07:31:18.036Z,101900.78
2022-10-09T07:33:48.331Z,101896.03
2022-10-09T07:36:14.919Z,101895.09
2022-10-09T07:38:41.599Z,101898.56
2022-10-09T07:41:10.554Z,101898.09
2022-10-09T07:43:38.789Z,101906.38
2022-10-09T07:46:07.280Z,101899.94
2022-10-09T07:48:35.217Z,101899.78
2022-10-09T07:51:23.418Z,101910.34
2022-10-09T07:53:50.629Z,101911.41
2022-10-09T07:56:22.630Z,101902.75
2022-10-09T07:58:50.793Z,101900.94
2022-10-09T08:01:20.050Z,101907.84
2022-10-09T08:03:47.436Z,101906.13
2022-10-09T08:06:14.032Z,101894.84
2022-10-09T08:08:40.697Z,101894.91
2022-10-09T08:11:12.845Z,101896.47
2022-10-09T08:13:39.801Z,101897.00
2022-10-09T08:16:07.084Z,101896.66
2022-10-09T08:18:34.320Z,101888.81
2022-10-09T08:21:06.572Z,101893.00
2022-10-09T08:23:33.626Z,101895.66
2022-10-09T08:26:00.829Z,101885.84
2022-10-09T08:28:27.422Z,101880.78
2022-10-09T08:30:54.162Z,101889.25
2022-10-09T08:33:23.240Z,101873.59
2022-10-09T08:35:50.073Z,101885.34
2022-10-09T08:38:37.625Z,101881.69
2022-10-09T08:41:13.950Z,101885.31
2022-10-09T08:43:45.471Z,101882.31
2022-10-09T08:46:29.397Z,101872.56
2022-10-09T08:48:56.230Z,101879.16
2022-10-09T08:51:29.617Z,101870.94
2022-10-09T08:54:04.433Z,101862.13
2022-10-09T08:56:33.271Z,101866.69
2022-10-09T08:59:01.549Z,101867.50
2022-10-09T09:01:51.099Z,101875.94
2022-10-09T09:04:29.780Z,101869.91
2022-10-09T09:07:21.083Z,101867.81
2022-10-09T09:10:14.143Z,101864.41
2022-10-09T09:13:31.412Z,101860.75
2022-10-09T09:16:20.379Z,101852.56
2022-10-09T09:19:32.042Z,101854.91
2022-10-09T09:21:59.014Z,101855.78
2022-10-09T09:24:40.370Z,101849.00
2022-10-09T09:27:19.184Z,101850.19
2022-10-09T09:29:54.760Z,101849.09
2022-10-09T09:32:24.005Z,101843.63
2022-10-09T09:34:52.723Z,101837.69
2022-10-09T09:37:19.252Z,101822.81
2022-10-09T09:42:32.400Z,101833.06
2022-10-09T09:45:07.755Z,101821.88
2022-10-09T09:47:47.606Z,101817.59
2022-10-09T09:50:34.943Z,101819.97
2022-10-09T09:53:05.188Z,101814.75
2022-10-09T09:55:33.420Z,101812.97
2022-10-09T09:58:06.683Z,101813.28
2022-10-09T10:00:34.421Z,101804.84
2022-10-09T10:03:19.929Z,101799.72
2022-10-09T10:05:46.554Z,101790.63
2022-10-09T10:08:29.190Z,101794.34
2022-10-09T10:10:58.810Z,101787.53
2022-10-09T10:13:37.382Z,101785.97
2022-10-09T10:16:07.083Z,101792.03
2022-10-09T10:18:41.033Z,101783.59
2022-10-09T10:21:16.478Z,101788.06
2022-10-09T10:23:52.253Z,101790.06
2022-10-09T10:26:21.900Z,101790.75
2022-10-09T10:29:08.208Z,101776.78
2022-10-09T10:31:56.381Z,101776.03
2022-10-09T10:34:50.644Z,101765.81
2022-10-09T10:37:25.262Z,101771.03
2022-10-09T10:40:03.012Z,101766.59
2022-10-09T10:42:44.814Z,101765.63
2022-10-09T10:45:50.171Z,101757.75
2022-10-09T10:48:25.641Z,101753.09
2022-10-09T10:51:02.871Z,101750.94
2022-10-09T10:53:32.238Z,101749.63
2022-10-09T10:56:05.475Z,101745.19
2022-10-09T10:58:38.159Z,101746.09
2022-10-09T11:01:38.815Z,101741.16
2022-10-09T11:04:24.108Z,101741.88
2022-10-09T11:07:07.730Z,101737.81
2022-10-09T11:09:57.542Z,101731.56
2022-10-09T11:12:47.917Z,101716.75
2022-10-09T11:15:37.738Z,101723.00
2022-10-09T11:18:34.630Z,101721.06
2022-10-09T11:21:17.382Z,101714.28
2022-10-09T11:24:06.434Z,101707.41
2022-10-09T11:26:49.148Z,101704.84
2022-10-09T11:29:21.749Z,101696.19
2022-10-09T11:31:54.206Z,101687.47
2022-10-09T11:34:44.454Z,101681.25
2022-10-09T11:37:23.544Z,101677.88
2022-10-09T11:39:50.095Z,101673.59
2022-10-09T11:42:21.847Z,101667.50
2022-10-09T11:45:19.483Z,101667.50
2022-10-09T11:47:55.302Z,101657.84
2022-10-09T11:50:25.468Z,101660.47
2022-10-09T11:53:08.996Z,101659.63
2022-10-09T11:55:36.599Z,101649.06
2022-10-09T11:58:25.282Z,101654.34
2022-10-09T12:00:55.324Z,101640.25
2022-10-09T12:03:24.659Z,101637.59
2022-10-09T12:05:51.434Z,101622.78
2022-10-09T12:08:30.824Z,101628.84
2022-10-09T12:11:07.164Z,101624.53
2022-10-09T12:13:38.801Z,101618.38
2022-10-09T12:16:28.151Z,101605.19
2022-10-09T12:18:55.344Z,101606.06
2022-10-09T12:21:28.779Z,101600.84
2022-10-09T12:23:55.725Z,101601.75
2022-10-09T12:26:24.964Z,101593.88
2022-10-09T12:28:55.830Z,101597.28
2022-10-09T12:31:27.780Z,101596.38
2022-10-09T12:34:02.920Z,101591.91
2022-10-09T12:36:31.478Z,101585.63
2022-10-09T12:39:11.328Z,101581.25
2022-10-09T12:41:38.069Z,101568.59
2022-10-09T12:44:15.464Z,101566.09
2022-10-09T12:46:42.029Z,101573.31
2022-10-09T12:49:19.042Z,101562.00
2022-10-09T12:51:56.363Z,101561.97
2022-10-09T12:54:27.225Z,101553.06
2022-10-09T12:56:56.824Z,101548.56
2022-10-09T12:59:27.051Z,101544.41
2022-10-09T13:01:57.649Z,101545.22
2022-10-09T13:04:27.696Z,101537.03
2022-10-09T13:06:55.270Z,101528.84
2022-10-09T13:09:26.655Z,101528.25
2022-10-09T13:12:00.261Z,101525.56
2022-10-09T13:14:34.152Z,101523.28
2022-10-09T13:17:01.482Z,101520.91
2022-10-09T13:19:31.826Z,101522.38
2022-10-09T13:22:19.226Z,101516.94
2022-10-09T13:24:47.116Z,101505.53
2022-10-09T13:27:19.353Z,101509.03
2022-10-09T13:29:47.629Z,101491.34
2022-10-09T13:32:16.341Z,101487.88
2022-10-09T13:34:43.539Z,101490.66
2022-10-09T13:37:14.305Z,101495.06
2022-10-09T13:39:41.467Z,101475.94
2022-10-09T13:42:10.175Z,101490.22
2022-10-09T13:44:36.705Z,101476.06
2022-10-09T13:47:03.345Z,101474.16
2022-10-09T13:49:29.989Z,101473.19
2022-10-09T13:51:56.558Z,101463.44
2022-10-09T13:54:23.839Z,101459.91
2022-10-09T13:56:50.516Z,101463.72
2022-10-09T13:59:17.153Z,101458.66
2022-10-09T14:01:43.767Z,101453.38
2022-10-09T14:04:10.294Z,101449.22
2022-10-09T14:06:37.027Z,101443.00
2022-10-09T14:09:06.936Z,101434.28
2022-10-09T14:11:34.220Z,101435.81
2022-10-09T14:14:01.051Z,101434.06
2022-10-09T14:16:28.745Z,101435.88
2022-10-09T14:19:00.549Z,101428.09
2022-10-09T14:21:28.060Z,101416.59
2022-10-09T14:23:57.018Z,101420.88
2022-10-09T14:26:25.687Z,101412.25
2022-10-09T14:28:53.087Z,101400.69
2022-10-09T14:31:19.992Z,101408.63
2022-10-09T14:33:48.054Z,101406.91
2022-10-09T14:36:18.668Z,101392.03
2022-10-09T14:38:45.934Z,101391.88
2022-10-09T14:41:13.909Z,101392.84
2022-10-09T14:43:40.658Z,101385.06
2022-10-09T14:46:12.076Z,101382.28
2022-10-09T14:48:39.818Z,101376.03
2022-10-09T14:51:10.699Z,101378.44
2022-10-09T14:53:37.246Z,101369.47
2022-10-09T14:56:05.923Z,101372.72
2022-10-09T14:58:34.087Z,101368.59
2022-10-09T15:01:01.010Z,101368.53
2022-10-09T15:03:29.357Z,101355.38
2022-10-09T15:06:07.108Z,101371.94
2022-10-09T15:08:37.214Z,101356.28
2022-10-09T15:11:04.408Z,101364.00
2022-10-09T15:13:33.577Z,101349.47
2022-10-09T15:16:01.286Z,101349.31
2022-10-09T15:18:29.205Z,101342.16
2022-10-09T15:20:57.624Z,101349.69
2022-10-09T15:23:24.360Z,101333.16
2022-10-09T15:25:52.698Z,101341.03
2022-10-09T15:28:19.794Z,101335.28
2022-10-09T15:30:48.541Z,101337.38
2022-10-09T15:33:15.133Z,101316.34
2022-10-09T15:35:41.795Z,101310.31
2022-10-09T15:38:14.700Z,101309.53
2022-10-09T15:40:47.105Z,101303.88
2022-10-09T15:43:17.375Z,101297.97
2022-10-09T15:45:44.742Z,101307.09
2022-10-09T15:48:20.482Z,101302.78
2022-10-09T15:50:50.428Z,101300.97
2022-10-09T15:53:18.532Z,101296.66
2022-10-09T15:55:47.958Z,101302.84
2022-10-09T15:58:16.030Z,101295.91
2022-10-09T16:00:47.448Z,101295.94
2022-10-09T16:03:15.628Z,101296.00
2022-10-09T16:05:44.523Z,101286.34
2022-10-09T16:08:11.816Z,101288.16
2022-10-09T16:10:48.422Z,101284.63
2022-10-09T16:13:16.106Z,101276.78
2022-10-09T16:15:49.677Z,101287.22
2022-10-09T16:18:18.299Z,101278.50
2022-10-09T16:20:45.024Z,101276.84
2022-10-09T16:23:12.815Z,101280.31
2022-10-09T16:25:40.887Z,101275.09
2022-10-09T16:28:09.574Z,101263.72
2022-10-09T16:30:41.621Z,101270.72
2022-10-09T16:33:12.480Z,101272.47
2022-10-09T16:35:39.749Z,101273.31
2022-10-09T16:38:06.424Z,101267.22
2022-10-09T16:40:57.298Z,101275.91
2022-10-09T16:43:20.113Z,101269.81
2022-10-09T16:45:46.825Z,101264.53
2022-10-09T16:48:13.626Z,101271.56
2022-10-09T16:50:41.750Z,101278.53
2022-10-09T16:53:08.441Z,101277.66
2022-10-09T16:55:35.193Z,101283.75
2022-10-09T16:58:01.719Z,101265.41
2022-10-09T17:00:28.391Z,101270.63
2022-10-09T17:02:54.951Z,101267.97
2022-10-09T17:05:21.622Z,101274.97
2022-10-09T17:07:48.472Z,101264.47
2022-10-09T17:10:15.341Z,101270.56
2022-10-09T17:12:42.270Z,101267.91
2022-10-09T17:15:08.994Z,101262.63
2022-10-09T17:17:35.617Z,101259.13
2022-10-09T17:20:02.295Z,101254.66
2022-10-09T17:22:28.841Z,101254.66
2022-10-09T17:24:55.430Z,101249.34
2022-10-09T17:27:22.008Z,101259.78
2022-10-09T17:29:48.531Z,101254.38
2022-10-09T17:32:15.090Z,101237.81
2022-10-09T17:34:45.635Z,101243.06
2022-10-09T17:37:13.095Z,101246.53
2022-10-09T17:39:40.047Z,101253.47
2022-10-09T17:42:06.629Z,101253.41
2022-10-09T17:44:33.232Z,101253.41
2022-10-09T17:47:00.783Z,101241.91
2022-10-09T17:49:27.664Z,101243.56
2022-10-09T17:51:54.559Z,101246.13
2022-10-09T17:54:21.225Z,101248.63
2022-10-09T17:56:47.908Z,101242.50
2022-10-09T17:59:15.636Z,101243.38
2022-10-09T18:01:42.389Z,101235.50
2022-10-09T18:04:13.861Z,101233.66
2022-10-09T18:06:40.376Z,101238.00
2022-10-09T18:09:06.945Z,101235.25
2022-10-09T18:11:33.629Z,101215.09
2022-10-09T18:14:00.523Z,101224.69
2022-10-09T18:16:36.102Z,101214.91
2022-10-09T18:19:15.243Z,101210.66
2022-10-09T18:21:45.558Z,101216.63
2022-10-09T18:24:15.767Z,101214.88
2022-10-09T18:26:42.728Z,101213.13
2022-10-09T18:29:09.351Z,101214.91
2022-10-09T18:31:37.769Z,101200.75
2022-10-09T18:34:04.434Z,101212.22
2022-10-09T18:36:31.764Z,101210.31
2022-10-09T18:39:07.526Z,101211.09
2022-10-09T18:41:35.361Z,101202.22
2022-10-09T18:44:02.919Z,101197.84
2022-10-09T18:46:36.032Z,101193.34
2022-10-09T18:49:03.147Z,101191.59
2022-10-09T18:51:30.733Z,101194.28
2022-10-09T18:54:01.777Z,101195.22
2022-10-09T18:56:31.653Z,101186.25
2022-10-09T18:58:59.355Z,101188.78
2022-10-09T19:01:25.987Z,101184.38
2022-10-09T19:03:52.605Z,101188.50
2022-10-09T19:06:19.524Z,101184.13
2022-10-09T19:08:46.724Z,101193.72
2022-10-09T19:11:14.351Z,101186.75
2022-10-09T19:13:42.911Z,101181.41
2022-10-09T19:16:09.840Z,101177.88
2022-10-09T19:18:36.949Z,101177.13
2022-10-09T19:21:04.003Z,101178.00
2022-10-09T19:23:30.640Z,101172.69
2022-10-09T19:26:00.209Z,101181.38
2022-10-09T19:28:30.478Z,101183.72
2022-10-09T19:30:57.616Z,101176.69
2022-10-09T19:33:24.252Z,101174.09
2022-10-09T19:35:53.894Z,101177.53
2022-10-09T19:38:21.418Z,101168.72
2022-10-09T19:40:48.888Z,101160.00
2022-10-09T19:43:17.151Z,101152.91
2022-10-09T19:45:43.908Z,101154.63
2022-10-09T19:48:10.541Z,101158.06
2022-10-09T19:50:44.135Z,101153.72
2022-10-09T19:53:11.712Z,101147.47
2022-10-09T19:55:38.815Z,101153.56
2022-10-09T19:58:05.413Z,101159.44
2022-10-09T20:00:31.989Z,101139.31
2022-10-09T20:02:58.691Z,101143.56
2022-10-09T20:05:25.275Z,101152.25
2022-10-09T20:07:52.268Z,101148.03
2022-10-09T20:10:18.930Z,101145.28
2022-10-09T20:12:45.605Z,101137.13
2022-10-09T20:15:12.138Z,101153.88
2022-10-09T20:17:38.677Z,101153.94
2022-10-09T20:20:06.080Z,101150.25
2022-10-09T20:22:32.621Z,101156.50
2022-10-09T20:24:59.183Z,101151.91
2022-10-09T20:27:25.712Z,101157.13
2022-10-09T20:29:52.975Z,101153.50
2022-10-09T20:32:19.796Z,101143.84
2022-10-09T20:34:46.462Z,101140.34
2022-10-09T20:37:13.077Z,101137.41
2022-10-09T20:39:39.660Z,101135.72
2022-10-09T20:42:06.335Z,101139.09
2022-10-09T20:44:33.047Z,101151.22
2022-10-09T20:46:59.738Z,101144.28
2022-10-09T20:49:26.509Z,101125.06
2022-10-09T20:51:53.205Z,101130.06
2022-10-09T20:54:21.510Z,101134.59
2022-10-09T20:56:48.668Z,101130.03
2022-10-09T20:59:16.935Z,101125.56
2022-10-09T21:01:43.920Z,101128.13
2022-10-09T21:04:12.129Z,101127.00
2022-10-09T21:06:39.282Z,101126.03
2022-10-09T21:09:06.728Z,101123.63
2022-10-09T21:11:34.821Z,101118.41
2022-10-09T21:14:02.489Z,101124.16
2022-10-09T21:16:29.473Z,101115.56
2022-10-09T21:19:01.434Z,101117.31
2022-10-09T21:21:29.290Z,101115.63
2022-10-09T21:23:57.791Z,101110.19
2022-10-09T21:26:25.739Z,101112.94
2022-10-09T21:28:56.771Z,101110.09
2022-10-09T21:31:28.366Z,101097.97
2022-10-09T21:33:55.600Z,101107.56
2022-10-09T21:39:32.741Z,101098.47
2022-10-09T21:41:59.288Z,101099.25
2022-10-09T21:44:25.928Z,101090.69
2022-10-09T21:46:52.489Z,101092.44
2022-10-09T21:49:24.232Z,101088.84
2022-10-09T21:51:51.228Z,101084.63
2022-10-09T21:54:17.831Z,101076.84
2022-10-09T21:56:44.514Z,101080.28
2022-10-09T21:59:11.299Z,101080.00
2022-10-09T22:01:37.899Z,101072.97
2022-10-09T22:04:04.827Z,101071.38
2022-10-09T22:06:31.397Z,101067.72
2022-10-09T22:08:59.829Z,101066.84
2022-10-09T22:11:26.893Z,101067.50
2022-10-09T22:13:55.361Z,101063.91
2022-10-09T22:16:22.100Z,101059.72
2022-10-09T22:18:48.782Z,101057.97
2022-10-09T22:21:18.209Z,101058.69
2022-10-09T22:23:44.964Z,101056.13
2022-10-09T22:26:14.545Z,101050.00
2022-10-09T22:28:41.439Z,101047.22
2022-10-09T22:31:21.519Z,101055.25
2022-10-09T22:33:53.061Z,101030.75
2022-10-09T22:36:21.389Z,101044.59
2022-10-09T22:38:48.393Z,101036.75
2022-10-09T22:41:20.729Z,101032.41
2022-10-09T22:43:49.812Z,101032.66
2022-10-09T22:46:19.297Z,101029.13
2022-10-09T22:48:45.948Z,101032.53
2022-10-09T22:51:15.368Z,101030.53
2022-10-09T22:53:42.635Z,101033.91
2022-10-09T22:56:16.588Z,101023.50
2022-10-09T22:58:44.480Z,101021.66
2022-10-09T23:01:15.094Z,101026.75
2022-10-09T23:03:41.667Z,101003.94
2022-10-09T23:06:10.503Z,101023.13
2022-10-09T23:08:39.052Z,101012.69
2022-10-09T23:11:06.439Z,101003.94
2022-10-09T23:13:33.156Z,101012.50
2022-10-09T23:16:00.918Z,101001.91
2022-10-09T23:18:28.348Z,101005.28
2022-10-09T23:20:55.082Z,101001.81
2022-10-09T23:23:21.768Z,100999.44
2022-10-09T23:25:48.380Z,100989.75
2022-10-09T23:28:14.916Z,100993.13
2022-10-09T23:30:41.520Z,100989.38
2022-10-09T23:33:08.032Z,100988.72
2022-10-09T23:35:39.987Z,100980.75
2022-10-09T23:38:06.579Z,100984.03
2022-10-09T23:40:33.165Z,100978.00
2022-10-09T23:42:59.701Z,100966.75
2022-10-09T23:45:26.342Z,100969.13
2022-10-09T23:47:52.993Z,100972.69
2022-10-09T23:50:19.536Z,100970.03
2022-10-09T23:52:46.143Z,100970.91
2022-10-09T23:55:12.769Z,100975.16
2022-10-09T23:57:39.361Z,100968.28
